Time;durP1;ratioP1;P1;durP2;ratioP2;P2;SDS_P1;SDS_P2;PMS_P1;PMS_P2;Temp;Humidity;BMP_temperature;BMP_pressure;BME280_temperature;BME280_humidity;BME280_pressure;Samples;Min_cycle;Max_cycle;Signal;HPM_P1;HPM_P2
2023/10/11 00:01:29;;;;;;;0.10;0.10;;;15.00;99.90;;;;;;5024022;28;20456;-86
2023/10/11 00:03:56;;;;;;;0.10;0.10;;;15.10;99.90;;;;;;5047114;28;20462;-85
2023/10/11 00:06:24;;;;;;;0.10;0.10;;;15.00;99.90;;;;;;5047044;28;20990;-87
2023/10/11 00:08:50;;;;;;;0.10;0.10;;;15.00;99.90;;;;;;5045435;28;20516;-85
2023/10/11 00:11:23;;;;;;;0.10;0.10;;;15.00;99.90;;;;;;5040440;28;20457;-85
2023/10/11 00:13:49;;;;;;;0.10;0.10;;;14.90;99.90;;;;;;5038744;28;20473;-84
2023/10/11 00:16:17;;;;;;;0.10;0.10;;;15.00;99.90;;;;;;5031934;28;20433;-88
2023/10/11 00:18:43;;;;;;;0.10;0.10;;;15.00;99.90;;;;;;5040810;28;20178;-88
2023/10/11 00:21:15;;;;;;;0.10;0.10;;;14.90;99.90;;;;;;5036205;28;20509;-87
2023/10/11 00:23:46;;;;;;;0.10;0.10;;;14.90;99.90;;;;;;5048776;28;21001;-85
2023/10/11 00:26:14;;;;;;;0.10;0.10;;;14.90;99.90;;;;;;5035044;28;20438;-87
2023/10/11 00:28:40;;;;;;;0.10;0.10;;;14.90;99.90;;;;;;5045129;28;20441;-86
2023/10/11 00:31:13;;;;;;;0.10;0.10;;;14.90;99.90;;;;;;5045569;28;20441;-86
2023/10/11 00:33:39;;;;;;;0.10;0.10;;;14.90;99.90;;;;;;5038405;28;20455;-86
2023/10/11 00:36:05;;;;;;;0.10;0.10;;;14.80;99.90;;;;;;5039986;28;20437;-85
2023/10/11 00:38:32;;;;;;;0.10;0.10;;;14.80;99.90;;;;;;5021328;28;20183;-86
2023/10/11 00:41:06;;;;;;;0.10;0.10;;;14.90;99.90;;;;;;5035967;28;20469;-85
2023/10/11 00:43:37;;;;;;;0.10;0.10;;;14.80;99.90;;;;;;5028253;28;20929;-86
2023/10/11 00:46:08;;;;;;;0.10;0.10;;;14.80;99.90;;;;;;5033903;28;20456;-85
2023/10/11 00:48:37;;;;;;;0.10;0.10;;;14.80;99.90;;;;;;5037692;28;20513;-85
2023/10/11 00:51:02;;;;;;;0.10;0.10;;;14.80;99.90;;;;;;5017749;28;20447;-88
2023/10/11 00:53:34;;;;;;;0.10;0.10;;;14.90;99.90;;;;;;5040431;28;20437;-86
2023/10/11 00:56:04;;;;;;;0.10;0.10;;;14.90;99.90;;;;;;5043419;28;20670;-88
2023/10/11 00:58:30;;;;;;;0.10;0.10;;;14.80;99.90;;;;;;5034562;28;20462;-85
2023/10/11 01:00:57;;;;;;;0.10;0.10;;;14.80;99.90;;;;;;5046005;28;20895;-86
2023/10/11 01:03:23;;;;;;;0.10;0.10;;;14.80;99.90;;;;;;5035869;28;20448;-86
2023/10/11 01:05:49;;;;;;;0.10;0.10;;;14.80;99.90;;;;;;5047302;28;20640;-86
2023/10/11 01:08:15;;;;;;;0.10;0.10;;;14.80;99.90;;;;;;5045449;28;20810;-86
2023/10/11 01:10:45;;;;;;;0.10;0.10;;;14.80;99.90;;;;;;5049696;28;20187;-86
2023/10/11 01:13:13;;;;;;;0.10;0.10;;;14.80;99.90;;;;;;5051475;28;20196;-85
2023/10/11 01:15:41;;;;;;;0.10;0.10;;;14.80;99.90;;;;;;5046543;28;20425;-86
2023/10/11 01:18:06;;;;;;;0.10;0.10;;;14.80;99.90;;;;;;5048512;28;20893;-85
2023/10/11 01:20:36;;;;;;;0.10;0.10;;;14.70;99.90;;;;;;5046658;28;20520;-86
2023/10/11 01:23:04;;;;;;;0.10;0.10;;;14.80;99.90;;;;;;5022068;28;20639;-85
2023/10/11 01:25:29;;;;;;;0.10;0.10;;;14.80;99.90;;;;;;5045901;28;20575;-86
2023/10/11 01:27:55;;;;;;;0.10;0.10;;;14.80;99.90;;;;;;5023606;28;20486;-87
2023/10/11 01:30:21;;;;;;;0.10;0.10;;;14.80;99.90;;;;;;5016428;28;20203;-89
2023/10/11 01:32:48;;;;;;;0.10;0.10;;;14.80;99.90;;;;;;5038488;28;20175;-88
2023/10/11 01:35:19;;;;;;;0.10;0.10;;;14.70;99.90;;;;;;5047276;28;20182;-87
2023/10/11 01:37:48;;;;;;;0.10;0.10;;;14.70;99.90;;;;;;5040420;28;20457;-86
2023/10/11 01:40:20;;;;;;;0.10;0.10;;;14.70;99.90;;;;;;5033896;28;20927;-86
2023/10/11 01:42:50;;;;;;;0.10;0.10;;;14.70;99.90;;;;;;5049484;28;20479;-86
2023/10/11 01:45:17;;;;;;;0.10;0.10;;;14.60;99.90;;;;;;5036183;28;21086;-87
2023/10/11 01:47:46;;;;;;;0.10;0.10;;;14.60;99.90;;;;;;5033796;28;21014;-86
2023/10/11 01:50:16;;;;;;;0.10;0.10;;;14.60;99.90;;;;;;5053847;28;20429;-86
2023/10/11 01:52:42;;;;;;;0.10;0.10;;;14.60;99.90;;;;;;5036731;28;20837;-86
2023/10/11 01:55:13;;;;;;;0.20;0.20;;;14.60;99.90;;;;;;5043443;28;20496;-86
2023/10/11 01:57:45;;;;;;;0.10;0.10;;;14.60;99.90;;;;;;5033465;28;20449;-83
2023/10/11 02:00:15;;;;;;;0.10;0.10;;;14.70;99.90;;;;;;5038578;28;20790;-84
2023/10/11 02:02:55;;;;;;;0.10;0.10;;;14.70;99.90;;;;;;5038493;28;20522;-83
2023/10/11 02:05:24;;;;;;;0.10;0.10;;;14.60;99.90;;;;;;5047412;28;20476;-86
2023/10/11 02:07:50;;;;;;;0.10;0.10;;;14.60;99.90;;;;;;5032773;28;20437;-85
2023/10/11 02:10:25;;;;;;;0.10;0.10;;;14.60;99.90;;;;;;5035393;28;20426;-89
2023/10/11 02:12:52;;;;;;;0.10;0.10;;;14.60;99.90;;;;;;5038506;28;20433;-86
2023/10/11 02:15:21;;;;;;;0.10;0.10;;;14.60;99.90;;;;;;5038782;28;20485;-87
2023/10/11 02:17:53;;;;;;;0.10;0.10;;;14.50;99.90;;;;;;5041486;28;22123;-86
2023/10/11 02:20:22;;;;;;;0.10;0.10;;;14.50;99.90;;;;;;5038875;28;20523;-86
2023/10/11 02:22:52;;;;;;;0.10;0.10;;;14.50;99.90;;;;;;5015265;28;20437;-87
2023/10/11 02:25:19;;;;;;;0.10;0.10;;;14.40;99.90;;;;;;5014926;28;20981;-86
2023/10/11 02:27:49;;;;;;;0.10;0.10;;;14.40;99.90;;;;;;5038211;28;20491;-86
2023/10/11 02:30:20;;;;;;;0.10;0.10;;;14.40;99.90;;;;;;5039252;28;20442;-87
2023/10/11 02:32:47;;;;;;;0.10;0.10;;;14.40;99.90;;;;;;5045366;28;20457;-86
2023/10/11 02:35:13;;;;;;;0.10;0.10;;;14.40;99.90;;;;;;5041771;28;20445;-85
2023/10/11 02:37:39;;;;;;;0.10;0.10;;;14.40;99.90;;;;;;5035589;28;20441;-86
2023/10/11 02:40:08;;;;;;;0.10;0.10;;;14.50;99.90;;;;;;5024594;28;20526;-86
2023/10/11 02:42:36;;;;;;;0.10;0.10;;;14.40;99.90;;;;;;5036956;28;20461;-87
2023/10/11 02:45:08;;;;;;;0.10;0.10;;;14.40;99.90;;;;;;5039681;28;20484;-89
2023/10/11 02:47:35;;;;;;;0.10;0.10;;;14.40;99.90;;;;;;5047207;28;20445;-85
2023/10/11 02:50:05;;;;;;;0.10;0.10;;;14.50;99.90;;;;;;5031798;28;20418;-84
2023/10/11 02:52:35;;;;;;;0.10;0.10;;;14.50;99.90;;;;;;5033823;28;20433;-85
2023/10/11 02:55:16;;;;;;;0.10;0.10;;;14.40;99.90;;;;;;5051369;28;20563;-86
2023/10/11 02:57:42;;;;;;;0.10;0.10;;;14.50;99.90;;;;;;5039667;28;20437;-84
2023/10/11 03:00:21;;;;;;;0.10;0.10;;;14.40;99.90;;;;;;5038566;28;20444;-84
2023/10/11 03:02:54;;;;;;;0.10;0.10;;;14.40;99.90;;;;;;5019231;28;20421;-85
2023/10/11 03:05:23;;;;;;;0.10;0.10;;;14.40;99.90;;;;;;5050711;28;20481;-84
2023/10/11 03:07:48;;;;;;;0.10;0.10;;;14.40;99.90;;;;;;5026398;28;20428;-84
2023/10/11 03:10:14;;;;;;;0.10;0.10;;;14.40;99.90;;;;;;5051331;28;20800;-85
2023/10/11 03:12:42;;;;;;;0.10;0.10;;;14.40;99.90;;;;;;5031164;28;20590;-85
2023/10/11 03:15:10;;;;;;;0.10;0.10;;;14.40;99.90;;;;;;5032976;28;20466;-84
2023/10/11 03:17:41;;;;;;;0.10;0.10;;;14.30;99.90;;;;;;5046983;28;20425;-82
2023/10/11 03:20:27;;;;;;;0.10;0.10;;;14.30;99.90;;;;;;5042892;28;20824;-89
2023/10/11 03:22:52;;;;;;;0.10;0.10;;;14.30;99.90;;;;;;5047668;28;20999;-84
2023/10/11 03:25:19;;;;;;;0.10;0.10;;;14.30;99.90;;;;;;5040853;28;20490;-83
2023/10/11 03:27:49;;;;;;;0.10;0.10;;;14.30;99.90;;;;;;5013619;28;20238;-84
2023/10/11 03:30:15;;;;;;;0.10;0.10;;;14.30;99.90;;;;;;5035444;28;20507;-85
2023/10/11 03:32:44;;;;;;;0.10;0.10;;;14.30;99.90;;;;;;5050212;28;20524;-85
2023/10/11 03:35:10;;;;;;;0.10;0.10;;;14.20;99.90;;;;;;5040434;28;20436;-85
2023/10/11 03:37:40;;;;;;;0.10;0.10;;;14.20;99.90;;;;;;5033180;28;20438;-87
2023/10/11 03:40:26;;;;;;;0.10;0.10;;;14.20;99.90;;;;;;5048721;28;20887;-87
2023/10/11 03:42:54;;;;;;;0.10;0.10;;;14.20;99.90;;;;;;5041512;28;20433;-84
2023/10/11 03:45:27;;;;;;;0.10;0.10;;;14.20;99.90;;;;;;5037314;28;20559;-85
2023/10/11 03:47:58;;;;;;;0.10;0.10;;;14.20;99.90;;;;;;5050930;28;20985;-84
2023/10/11 03:50:31;;;;;;;0.10;0.10;;;14.20;99.90;;;;;;5047561;28;20437;-84
2023/10/11 03:53:06;;;;;;;0.10;0.10;;;14.20;99.90;;;;;;5037548;28;20549;-84
2023/10/11 03:55:32;;;;;;;0.10;0.10;;;14.20;99.90;;;;;;5046994;28;20432;-85
2023/10/11 03:57:57;;;;;;;0.10;0.10;;;14.20;99.90;;;;;;5043080;28;21010;-83
2023/10/11 04:02:56;;;;;;;0.10;0.10;;;14.30;99.90;;;;;;5034709;28;20188;-84
2023/10/11 04:05:22;;;;;;;0.10;0.10;;;14.20;99.90;;;;;;5012859;28;20590;-83
2023/10/11 04:07:48;;;;;;;0.10;0.10;;;14.30;99.90;;;;;;5031608;28;20434;-84
2023/10/11 04:10:20;;;;;;;0.10;0.10;;;14.30;99.90;;;;;;5037348;28;20519;-86
2023/10/11 04:12:46;;;;;;;0.10;0.10;;;14.40;99.90;;;;;;5047718;28;20174;-88
2023/10/11 04:15:33;;;;;;;0.10;0.10;;;14.40;99.90;;;;;;5041222;28;20505;-87
2023/10/11 04:17:57;;;;;;;0.10;0.10;;;14.40;99.90;;;;;;5042137;28;20460;-87
2023/10/11 04:20:32;;;;;;;0.10;0.10;;;14.50;99.90;;;;;;5047132;28;20426;-88
2023/10/11 04:23:09;;;;;;;0.10;0.10;;;14.50;99.90;;;;;;5040957;28;20183;-85
2023/10/11 04:25:37;;;;;;;0.10;0.10;;;14.50;99.90;;;;;;5022571;28;20485;-84
2023/10/11 04:28:05;;;;;;;0.10;0.10;;;14.50;99.90;;;;;;5045050;28;20433;-84
2023/10/11 04:30:44;;;;;;;0.10;0.10;;;14.50;99.90;;;;;;5036755;28;20468;-86
2023/10/11 04:33:19;;;;;;;0.10;0.10;;;14.50;99.90;;;;;;5044027;28;20433;-84
2023/10/11 04:35:47;;;;;;;0.10;0.10;;;14.50;99.90;;;;;;5049538;28;20907;-85
2023/10/11 04:38:12;;;;;;;0.10;0.10;;;14.50;99.90;;;;;;5043376;28;20436;-87
2023/10/11 04:40:41;;;;;;;0.10;0.10;;;14.50;99.90;;;;;;5042479;28;20437;-85
2023/10/11 04:43:18;;;;;;;0.10;0.10;;;14.50;99.90;;;;;;5044824;28;20263;-86
2023/10/11 04:45:46;;;;;;;0.10;0.10;;;14.60;99.90;;;;;;5040510;28;20559;-85
2023/10/11 04:48:15;;;;;;;0.10;0.10;;;14.50;99.90;;;;;;5032690;28;20430;-84
2023/10/11 04:50:50;;;;;;;0.10;0.10;;;14.60;99.90;;;;;;5041210;28;20576;-86
2023/10/11 04:53:19;;;;;;;0.10;0.10;;;14.60;99.90;;;;;;5037739;28;20463;-87
2023/10/11 04:55:47;;;;;;;0.10;0.10;;;14.60;99.90;;;;;;5029550;28;20449;-85
2023/10/11 04:58:38;;;;;;;0.10;0.10;;;14.70;99.90;;;;;;5036478;28;20545;-85
2023/10/11 05:01:01;;;;;;;0.10;0.10;;;14.70;99.90;;;;;;5040789;28;20941;-87
2023/10/11 05:03:30;;;;;;;0.10;0.10;;;14.80;99.90;;;;;;5038423;28;20804;-88
2023/10/11 05:05:58;;;;;;;0.10;0.10;;;14.80;99.90;;;;;;5038329;28;20598;-90
2023/10/11 05:08:51;;;;;;;0.10;0.10;;;14.90;99.90;;;;;;5032099;28;20433;-88
2023/10/11 05:11:26;;;;;;;0.10;0.10;;;14.90;99.90;;;;;;5035304;28;20434;-89
2023/10/11 05:14:10;;;;;;;0.10;0.10;;;15.00;99.90;;;;;;5036427;28;20473;-88
2023/10/11 05:16:38;;;;;;;0.10;0.10;;;15.00;99.90;;;;;;5039600;28;20469;-89
2023/10/11 05:19:06;;;;;;;0.10;0.10;;;15.00;99.90;;;;;;5038602;28;20425;-87
2023/10/11 05:21:38;;;;;;;0.10;0.10;;;15.00;99.90;;;;;;5049326;28;20476;-90
2023/10/11 05:24:29;;;;;;;0.10;0.10;;;15.10;99.90;;;;;;5041986;28;21033;-89
2023/10/11 05:27:04;;;;;;;0.10;0.10;;;15.10;99.90;;;;;;5043618;28;20453;-87
2023/10/11 05:29:36;;;;;;;0.10;0.10;;;15.10;99.90;;;;;;5040934;28;20441;-87
2023/10/11 05:32:23;;;;;;;0.10;0.10;;;15.20;99.90;;;;;;5026133;28;20434;-87
2023/10/11 05:35:07;;;;;;;0.10;0.10;;;15.20;99.90;;;;;;5035733;28;20424;-87
2023/10/11 05:51:13;;;;;;;0.10;0.10;;;15.40;99.90;;;;;;5043625;28;20483;-87
2023/10/11 05:53:42;;;;;;;0.10;0.10;;;15.30;99.90;;;;;;5034039;28;20430;-89
2023/10/11 05:56:20;;;;;;;0.10;0.10;;;15.30;99.90;;;;;;5030266;28;20237;-88
2023/10/11 05:58:52;;;;;;;0.10;0.10;;;15.40;99.90;;;;;;5031399;28;20433;-89
2023/10/11 06:01:21;;;;;;;0.10;0.10;;;15.30;99.90;;;;;;5039682;28;20692;-89
2023/10/11 06:03:55;;;;;;;0.10;0.10;;;15.40;99.90;;;;;;5044943;28;20928;-90
2023/10/11 06:06:26;;;;;;;0.10;0.10;;;15.40;99.90;;;;;;5047069;28;20530;-89
2023/10/11 06:08:53;;;;;;;0.10;0.10;;;15.40;99.90;;;;;;5018187;28;20524;-89
2023/10/11 06:11:19;;;;;;;0.10;0.10;;;15.50;99.90;;;;;;5019815;28;20506;-89
2023/10/11 06:13:47;;;;;;;0.10;0.10;;;15.50;99.90;;;;;;5039481;28;20466;-88
2023/10/11 06:16:13;;;;;;;0.10;0.10;;;15.40;99.90;;;;;;5052257;28;20437;-90
2023/10/11 06:18:39;;;;;;;0.10;0.10;;;15.50;99.90;;;;;;5040462;28;20437;-88
2023/10/11 06:21:19;;;;;;;0.10;0.10;;;15.50;99.90;;;;;;5048037;28;20499;-90
2023/10/11 06:23:48;;;;;;;0.10;0.10;;;15.60;99.90;;;;;;5042575;28;20438;-87
2023/10/11 06:29:07;;;;;;;0.10;0.10;;;15.60;99.90;;;;;;5039949;28;20836;-87
2023/10/11 06:31:39;;;;;;;0.10;0.10;;;15.60;99.90;;;;;;5046530;28;20429;-89
2023/10/11 06:34:15;;;;;;;0.10;0.10;;;15.60;99.90;;;;;;5042176;28;20476;-88
2023/10/11 06:36:50;;;;;;;0.10;0.10;;;15.70;99.90;;;;;;5040768;28;20459;-86
2023/10/11 06:42:06;;;;;;;0.10;0.10;;;15.80;99.90;;;;;;5044545;28;20453;-89
2023/10/11 06:44:33;;;;;;;0.10;0.10;;;15.80;99.90;;;;;;5039985;28;20481;-88
2023/10/11 06:47:03;;;;;;;0.10;0.10;;;15.90;99.90;;;;;;5049734;28;20449;-85
2023/10/11 06:49:32;;;;;;;0.10;0.10;;;16.00;99.90;;;;;;5051845;28;20445;-86
2023/10/11 06:52:01;;;;;;;0.10;0.10;;;15.90;99.90;;;;;;5045182;28;20988;-86
2023/10/11 06:54:32;;;;;;;0.10;0.10;;;16.00;99.90;;;;;;5018661;28;20942;-87
2023/10/11 06:56:57;;;;;;;0.10;0.10;;;16.00;99.90;;;;;;5037988;28;20452;-92
2023/10/11 06:59:23;;;;;;;0.10;0.10;;;16.00;99.90;;;;;;5028347;28;20438;-86
2023/10/11 07:01:48;;;;;;;0.10;0.10;;;16.00;99.90;;;;;;5041892;28;20206;-85
2023/10/11 07:04:18;;;;;;;0.10;0.10;;;16.00;99.90;;;;;;5046441;28;20300;-85
2023/10/11 07:06:46;;;;;;;0.10;0.10;;;16.10;99.90;;;;;;5023255;28;20214;-89
2023/10/11 07:09:20;;;;;;;0.10;0.10;;;16.10;99.90;;;;;;5041624;28;20495;-88
2023/10/11 07:14:30;;;;;;;0.10;0.10;;;16.10;99.90;;;;;;5040394;28;20475;-84
2023/10/11 07:16:55;;;;;;;0.10;0.10;;;16.10;99.90;;;;;;5024598;28;20446;-84
2023/10/11 07:19:21;;;;;;;0.10;0.10;;;16.10;99.90;;;;;;5031370;28;20187;-90
2023/10/11 07:21:52;;;;;;;0.10;0.10;;;16.10;99.90;;;;;;5028901;28;20641;-86
2023/10/11 07:24:32;;;;;;;0.10;0.10;;;16.10;99.90;;;;;;5044100;28;20481;-90
2023/10/11 07:26:59;;;;;;;0.10;0.10;;;16.10;99.90;;;;;;5014280;28;20781;-88
2023/10/11 07:29:26;;;;;;;0.10;0.10;;;16.10;99.90;;;;;;5037767;28;20533;-84
2023/10/11 07:31:52;;;;;;;0.10;0.10;;;16.10;99.90;;;;;;5044191;28;20433;-83
2023/10/11 07:34:20;;;;;;;0.10;0.10;;;16.10;99.90;;;;;;5023533;28;20972;-85
2023/10/11 07:36:50;;;;;;;0.10;0.10;;;16.10;99.90;;;;;;5046632;28;20176;-86
2023/10/11 07:41:52;;;;;;;0.10;0.10;;;16.10;99.90;;;;;;5044276;28;20434;-86
2023/10/11 07:44:18;;;;;;;0.10;0.10;;;16.20;99.90;;;;;;5033458;28;20462;-90
2023/10/11 07:46:47;;;;;;;0.10;0.10;;;16.20;99.90;;;;;;5044998;28;20556;-87
2023/10/11 07:49:22;;;;;;;0.10;0.10;;;16.30;99.90;;;;;;5024055;28;20456;-89
2023/10/11 07:51:52;;;;;;;0.10;0.10;;;16.30;99.90;;;;;;5037498;28;20439;-88
2023/10/11 07:54:22;;;;;;;0.10;0.10;;;16.20;99.90;;;;;;5041453;28;20458;-88
2023/10/11 07:56:55;;;;;;;0.10;0.10;;;16.20;99.90;;;;;;5020937;28;20496;-88
2023/10/11 07:59:24;;;;;;;0.10;0.10;;;16.30;99.90;;;;;;5021441;28;20630;-92
2023/10/11 08:01:53;;;;;;;0.10;0.10;;;16.30;99.90;;;;;;5021557;28;20862;-92
2023/10/11 08:04:21;;;;;;;0.10;0.10;;;16.30;99.90;;;;;;5044196;28;20476;-89
2023/10/11 08:06:59;;;;;;;0.10;0.10;;;16.30;99.90;;;;;;5045773;28;20536;-91
2023/10/11 08:09:26;;;;;;;0.10;0.10;;;16.40;99.90;;;;;;5041348;28;20429;-92
2023/10/11 08:11:56;;;;;;;0.10;0.10;;;16.50;99.90;;;;;;5042336;28;20433;-94
2023/10/11 08:14:29;;;;;;;0.10;0.10;;;16.60;99.90;;;;;;5021223;28;20473;-94
2023/10/11 08:17:10;;;;;;;0.10;0.10;;;16.60;99.90;;;;;;5031741;28;20461;-93
2023/10/11 08:19:36;;;;;;;0.10;0.10;;;16.60;99.90;;;;;;5037675;28;20429;-94
2023/10/11 08:22:09;;;;;;;0.10;0.10;;;16.70;99.90;;;;;;5040122;28;20928;-92
2023/10/11 08:24:45;;;;;;;0.10;0.10;;;16.70;99.90;;;;;;5049142;28;20213;-92
2023/10/11 08:27:12;;;;;;;0.10;0.10;;;16.70;99.90;;;;;;5029449;28;20524;-95
2023/10/11 08:29:42;;;;;;;0.10;0.10;;;16.60;99.90;;;;;;5045675;28;20448;-96
2023/10/11 08:32:12;;;;;;;0.10;0.10;;;16.60;99.90;;;;;;5049222;28;20433;-95
2023/10/11 08:34:39;;;;;;;0.10;0.10;;;16.60;99.90;;;;;;5049765;28;20444;-96
2023/10/11 08:37:07;;;;;;;0.10;0.10;;;16.60;99.90;;;;;;5058977;28;20508;-96
2023/10/11 08:39:36;;;;;;;0.10;0.10;;;16.60;99.90;;;;;;5057432;28;20470;-96
2023/10/11 08:42:10;;;;;;;0.10;0.10;;;16.60;99.90;;;;;;5051325;28;20438;-96
2023/10/11 08:44:36;;;;;;;0.10;0.10;;;16.60;99.90;;;;;;5054850;28;20472;-93
2023/10/11 08:47:06;;;;;;;0.10;0.10;;;16.50;99.90;;;;;;5049003;28;20450;-95
2023/10/11 08:49:35;;;;;;;0.10;0.10;;;16.50;99.90;;;;;;5052798;28;20177;-92
2023/10/11 08:52:00;;;;;;;0.10;0.10;;;16.50;99.90;;;;;;5044839;28;20421;-94
2023/10/11 08:54:30;;;;;;;0.10;0.10;;;16.50;99.90;;;;;;5031890;28;20437;-92
2023/10/11 08:56:57;;;;;;;0.10;0.10;;;16.60;99.90;;;;;;5051877;28;20572;-90
2023/10/11 08:59:30;;;;;;;0.10;0.10;;;16.60;99.90;;;;;;5022638;28;20456;-94
2023/10/11 09:02:06;;;;;;;0.10;0.10;;;16.60;99.90;;;;;;5025025;28;20428;-96
2023/10/11 09:04:53;;;;;;;0.10;0.10;;;16.70;99.90;;;;;;5040945;28;20496;-94
2023/10/11 09:07:36;;;;;;;0.10;0.10;;;16.70;99.90;;;;;;5042295;28;20456;-93
2023/10/11 09:10:21;;;;;;;0.10;0.10;;;16.70;99.90;;;;;;5046335;28;20497;-93
2023/10/11 09:12:49;;;;;;;0.10;0.10;;;16.70;99.90;;;;;;5045755;28;20429;-89
2023/10/11 09:15:14;;;;;;;0.10;0.10;;;16.70;99.90;;;;;;5036852;28;20481;-90
2023/10/11 09:17:40;;;;;;;0.10;0.10;;;16.70;99.90;;;;;;5046627;28;20429;-91
2023/10/11 09:20:23;;;;;;;0.10;0.10;;;16.60;99.90;;;;;;5038068;28;20223;-89
2023/10/11 09:22:52;;;;;;;0.10;0.10;;;16.70;99.90;;;;;;5031286;28;20182;-92
2023/10/11 09:25:23;;;;;;;0.10;0.10;;;16.70;99.90;;;;;;5049104;28;20477;-87
2023/10/11 09:27:49;;;;;;;0.10;0.10;;;16.70;99.90;;;;;;5018020;28;20421;-90
2023/10/11 09:30:19;;;;;;;0.10;0.10;;;16.70;99.90;;;;;;5049118;28;20461;-94
2023/10/11 09:32:49;;;;;;;0.10;0.10;;;16.70;99.90;;;;;;5045824;28;20448;-95
2023/10/11 09:35:29;;;;;;;0.10;0.10;;;16.70;99.90;;;;;;5031339;28;20429;-92
2023/10/11 09:37:59;;;;;;;0.10;0.10;;;16.70;99.90;;;;;;5055348;28;20820;-95
2023/10/11 09:40:35;;;;;;;0.10;0.10;;;16.70;99.90;;;;;;5044453;28;20473;-94
2023/10/11 09:43:01;;;;;;;0.10;0.10;;;16.70;99.90;;;;;;5049345;28;20432;-91
2023/10/11 09:45:41;;;;;;;0.10;0.10;;;16.70;99.90;;;;;;5053766;28;20485;-94
2023/10/11 09:48:09;;;;;;;0.10;0.10;;;16.70;99.90;;;;;;5046838;28;20436;-92
2023/10/11 09:50:40;;;;;;;0.10;0.10;;;16.60;99.90;;;;;;5043121;28;20441;-94
2023/10/11 09:53:07;;;;;;;0.10;0.10;;;16.60;99.90;;;;;;5031464;28;20425;-92
2023/10/11 09:55:36;;;;;;;0.10;0.10;;;16.60;99.90;;;;;;5039957;28;20448;-92
2023/10/11 09:58:18;;;;;;;0.10;0.10;;;16.60;99.90;;;;;;5024862;28;20479;-91
2023/10/11 10:01:10;;;;;;;0.10;0.10;;;16.60;99.90;;;;;;5023959;28;20436;-93
2023/10/11 10:03:44;;;;;;;0.10;0.10;;;16.50;99.90;;;;;;5031254;28;20457;-92
2023/10/11 10:06:18;;;;;;;0.10;0.10;;;16.40;99.90;;;;;;5051348;28;20479;-91
2023/10/11 10:09:03;;;;;;;0.10;0.10;;;16.40;99.90;;;;;;5044253;28;20469;-93
2023/10/11 10:12:05;;;;;;;0.10;0.10;;;16.40;99.90;;;;;;5033133;28;20418;-91
2023/10/11 10:14:35;;;;;;;0.10;0.10;;;16.40;99.90;;;;;;5033557;28;20457;-92
2023/10/11 10:17:10;;;;;;;0.10;0.10;;;16.40;99.90;;;;;;5043264;28;20421;-90
2023/10/11 10:19:39;;;;;;;0.10;0.10;;;16.40;99.90;;;;;;5053101;28;20440;-90
2023/10/11 10:22:14;;;;;;;0.10;0.10;;;16.40;99.90;;;;;;5053537;28;20426;-92
2023/10/11 10:24:41;;;;;;;0.10;0.10;;;16.40;99.90;;;;;;5049906;28;20469;-91
2023/10/11 10:27:32;;;;;;;0.10;0.10;;;16.50;99.90;;;;;;5040507;28;20909;-90
2023/10/11 10:30:01;;;;;;;0.10;0.10;;;16.60;99.90;;;;;;5032959;28;20427;-90
2023/10/11 10:32:27;;;;;;;0.10;0.10;;;16.60;99.90;;;;;;5038178;28;20480;-90
2023/10/11 10:35:20;;;;;;;0.10;0.10;;;16.70;99.90;;;;;;5052306;28;20437;-89
2023/10/11 10:37:46;;;;;;;0.10;0.10;;;16.70;99.90;;;;;;5039318;28;20525;-89
2023/10/11 10:40:24;;;;;;;0.10;0.10;;;16.80;99.90;;;;;;5041138;28;20567;-90
2023/10/11 10:43:19;;;;;;;0.10;0.10;;;16.70;99.90;;;;;;5040478;28;20205;-91
2023/10/11 10:45:51;;;;;;;0.10;0.10;;;16.80;99.90;;;;;;5036040;28;21106;-89
2023/10/11 10:48:25;;;;;;;0.10;0.10;;;16.90;99.90;;;;;;5049985;28;20933;-89
2023/10/11 10:51:07;;;;;;;0.10;0.10;;;16.90;99.90;;;;;;5035141;28;20541;-90
2023/10/11 10:53:53;;;;;;;0.10;0.10;;;17.00;99.90;;;;;;5052882;28;20445;-89
2023/10/11 10:56:25;;;;;;;0.10;0.10;;;16.90;99.90;;;;;;5045225;28;21027;-90
2023/10/11 10:59:11;;;;;;;0.10;0.10;;;17.00;99.90;;;;;;5020345;28;20431;-92
2023/10/11 11:01:37;;;;;;;0.10;0.10;;;17.00;99.90;;;;;;5035405;28;20537;-88
2023/10/11 11:04:09;;;;;;;0.10;0.10;;;17.00;99.90;;;;;;5042443;28;20436;-88
2023/10/11 11:06:46;;;;;;;0.10;0.10;;;17.00;99.90;;;;;;5049625;28;20441;-88
2023/10/11 11:09:15;;;;;;;0.10;0.10;;;17.10;99.90;;;;;;5037265;28;20499;-87
2023/10/11 11:11:42;;;;;;;0.10;0.10;;;17.10;99.90;;;;;;5032848;28;20546;-88
2023/10/11 11:14:09;;;;;;;0.10;0.10;;;17.10;99.90;;;;;;5038645;28;20559;-87
2023/10/11 11:16:39;;;;;;;0.10;0.10;;;17.20;99.90;;;;;;5048412;28;20452;-86
2023/10/11 11:19:16;;;;;;;0.10;0.10;;;17.20;99.90;;;;;;5032412;28;20851;-85
2023/10/11 11:21:44;;;;;;;0.10;0.10;;;17.20;99.90;;;;;;5033866;28;20503;-88
2023/10/11 11:24:18;;;;;;;0.10;0.10;;;17.20;99.90;;;;;;5043136;28;21368;-88
2023/10/11 11:26:44;;;;;;;0.10;0.10;;;17.30;99.90;;;;;;5045892;28;20445;-90
2023/10/11 11:29:11;;;;;;;0.10;0.10;;;17.40;99.90;;;;;;5031529;28;20814;-89
2023/10/11 11:31:53;;;;;;;0.10;0.10;;;17.40;99.90;;;;;;5027897;28;20672;-88
2023/10/11 11:34:37;;;;;;;0.10;0.10;;;17.30;99.90;;;;;;5050820;28;20429;-86
2023/10/11 11:37:07;;;;;;;0.10;0.10;;;17.30;99.90;;;;;;5052411;28;20884;-89
2023/10/11 11:39:39;;;;;;;0.10;0.10;;;17.30;99.90;;;;;;5042273;28;20441;-89
2023/10/11 11:42:24;;;;;;;0.10;0.10;;;17.30;99.90;;;;;;5023102;28;20467;-89
2023/10/11 11:44:51;;;;;;;0.10;0.10;;;17.30;99.90;;;;;;5032610;28;20552;-88
2023/10/11 11:47:23;;;;;;;0.10;0.10;;;17.30;99.90;;;;;;5023451;28;20442;-88
2023/10/11 11:49:49;;;;;;;0.10;0.10;;;17.20;99.90;;;;;;5034030;28;20464;-87
2023/10/11 11:52:17;;;;;;;0.10;0.10;;;17.40;99.90;;;;;;5040107;28;20458;-89
2023/10/11 11:54:43;;;;;;;0.10;0.10;;;17.40;99.90;;;;;;5053386;28;20424;-90
2023/10/11 11:57:09;;;;;;;0.10;0.10;;;17.50;99.90;;;;;;5041520;28;20433;-89
2023/10/11 11:59:35;;;;;;;0.10;0.10;;;17.90;99.90;;;;;;5043648;28;20460;-87
2023/10/11 12:02:00;;;;;;;0.10;0.10;;;18.00;99.90;;;;;;5037745;28;20913;-87
2023/10/11 12:04:30;;;;;;;0.10;0.10;;;18.00;99.90;;;;;;5041081;28;20217;-88
2023/10/11 12:07:01;;;;;;;0.10;0.10;;;17.80;99.90;;;;;;5036484;28;20174;-87
2023/10/11 12:09:33;;;;;;;0.10;0.07;;;17.80;99.90;;;;;;5027809;28;20447;-86
2023/10/11 12:12:04;;;;;;;0.10;0.10;;;17.70;99.90;;;;;;5019549;28;20523;-87
2023/10/11 12:14:31;;;;;;;0.10;0.10;;;17.60;99.90;;;;;;5046277;28;21083;-85
2023/10/11 12:16:58;;;;;;;0.10;0.10;;;17.70;99.90;;;;;;5026214;28;20465;-88
2023/10/11 12:19:25;;;;;;;0.10;0.10;;;17.70;99.90;;;;;;5023128;28;20462;-91
2023/10/11 12:21:57;;;;;;;0.10;0.10;;;17.60;99.90;;;;;;5050562;28;20491;-89
2023/10/11 12:24:25;;;;;;;0.10;0.10;;;17.70;99.90;;;;;;5024566;28;20461;-88
2023/10/11 12:26:50;;;;;;;0.10;0.10;;;17.70;99.90;;;;;;5048519;28;20461;-87
2023/10/11 12:29:18;;;;;;;0.10;0.10;;;17.60;99.90;;;;;;5030690;28;20433;-86
2023/10/11 12:31:44;;;;;;;0.10;0.10;;;17.60;99.90;;;;;;5038563;28;20188;-87
2023/10/11 12:34:10;;;;;;;0.10;0.10;;;17.80;99.90;;;;;;5043357;28;20936;-87
2023/10/11 12:36:41;;;;;;;0.10;0.10;;;18.00;99.90;;;;;;5025799;28;20481;-88
2023/10/11 12:39:08;;;;;;;0.10;0.10;;;18.20;99.90;;;;;;5046564;28;20456;-87
2023/10/11 12:41:33;;;;;;;0.10;0.10;;;18.00;99.90;;;;;;5043108;28;20437;-89
2023/10/11 12:44:00;;;;;;;0.10;0.10;;;17.90;99.90;;;;;;5034398;28;20421;-89
2023/10/11 12:46:27;;;;;;;0.10;0.10;;;17.70;99.90;;;;;;5039208;28;20240;-88
2023/10/11 12:48:56;;;;;;;0.00;0.00;;;17.70;99.90;;;;;;5033744;28;20445;-89
2023/10/11 12:51:23;;;;;;;0.10;0.10;;;17.80;99.90;;;;;;5043806;28;20445;-88
2023/10/11 12:53:54;;;;;;;0.10;0.10;;;17.90;99.90;;;;;;5037901;28;20440;-89
2023/10/11 12:56:29;;;;;;;0.10;0.10;;;17.90;99.90;;;;;;5048868;28;20935;-89
2023/10/11 12:58:55;;;;;;;0.10;0.10;;;17.80;99.90;;;;;;5045300;28;20841;-90
2023/10/11 13:01:36;;;;;;;0.10;0.10;;;17.80;99.90;;;;;;5041534;28;20442;-88
2023/10/11 13:04:17;;;;;;;0.10;0.10;;;17.70;99.90;;;;;;5041597;28;20465;-87
2023/10/11 13:06:49;;;;;;;0.10;0.10;;;17.60;99.90;;;;;;5038904;28;20561;-89
2023/10/11 13:09:15;;;;;;;0.10;0.10;;;17.60;99.90;;;;;;5027591;28;21030;-90
2023/10/11 13:11:45;;;;;;;0.10;0.10;;;17.60;99.90;;;;;;5040312;28;20525;-86
2023/10/11 13:14:18;;;;;;;0.10;0.10;;;17.50;99.90;;;;;;5039368;28;20899;-86
2023/10/11 13:16:58;;;;;;;0.10;0.10;;;17.60;99.90;;;;;;5026429;28;20428;-88
2023/10/11 13:19:24;;;;;;;0.10;0.10;;;17.60;99.90;;;;;;5045419;28;20471;-90
2023/10/11 13:21:55;;;;;;;0.10;0.10;;;17.50;99.90;;;;;;5052690;28;20428;-87
2023/10/11 13:24:25;;;;;;;0.10;0.10;;;17.60;99.90;;;;;;5049448;28;20465;-89
2023/10/11 13:26:58;;;;;;;0.10;0.10;;;17.50;99.90;;;;;;5042208;28;20955;-89
2023/10/11 13:29:24;;;;;;;0.10;0.10;;;17.50;99.90;;;;;;5032228;28;20429;-91
2023/10/11 13:31:55;;;;;;;0.10;0.10;;;17.60;99.90;;;;;;5056959;28;20920;-90
2023/10/11 13:34:34;;;;;;;0.10;0.10;;;17.50;99.90;;;;;;5030408;28;20444;-91